Terminal Aerodrome Forecast
Issued by NWS Amarillo, TX

Home | Current Version | Previous Version | Text Only | Print | Product List | Glossary On
Versions: 1 2 3 4 5 6 7 8 9 10 11 12 13 14
000
FTUS44 KAMA 232321
TAFGUY
TAF
KGUY 232321Z 2400/2424 02020G30KT P6SM FEW150
     FM240100 32010KT P6SM SKC
     FM241600 33022G32KT P6SM SKC=

USA.gov is the U.S. government's official web portal to all federal, state and local government web resources and services.